Time,TemperatureF,DewpointF,PressureIn,WindDirection,WindDirectionDegrees,WindSpeedMPH,WindSpeedGustMPH,Humidity,HourlyPrecipIn,Conditions,Clouds,dailyrainin,SolarRadiationWatts/m^2,SoftwareType,DateUTC
2013-08-02 00:02:00,94.0,38.0,-100.00,SW,218,9.0,17.0,14,0.00,,,0.00,0.000000,,2013-08-02 07:02:00,
2013-08-02 00:12:00,94.0,38.0,-100.00,SW,218,9.0,17.0,14,0.00,,,0.00,0.000000,,2013-08-02 07:12:00,
2013-08-02 00:22:00,94.0,38.0,-100.00,SW,218,9.0,17.0,14,0.00,,,0.00,0.000000,,2013-08-02 07:22:00,
2013-08-02 00:53:00,92.0,42.0,-100.00,SW,220,7.0,15.0,18,0.00,,,0.00,0.000000,,2013-08-02 07:53:00,
2013-08-02 01:02:00,92.0,42.0,-100.00,SW,220,7.0,15.0,18,0.00,,,0.00,0.000000,,2013-08-02 08:02:00,
2013-08-02 01:12:00,92.0,42.0,-100.00,SW,220,7.0,15.0,18,0.00,,,0.00,0.000000,,2013-08-02 08:12:00,
2013-08-02 01:22:00,92.0,42.0,-100.00,SW,220,7.0,15.0,18,0.00,,,0.00,0.000000,,2013-08-02 08:22:00,
2013-08-02 01:54:00,87.0,41.0,-100.00,SE,124,0.0,9.0,20,0.00,,,0.00,0.000000,,2013-08-02 08:54:00,
2013-08-02 02:02:00,87.0,41.0,-100.00,SE,124,0.0,9.0,20,0.00,,,0.00,0.000000,,2013-08-02 09:02:00,
2013-08-02 02:12:00,87.0,41.0,-100.00,SE,124,0.0,9.0,20,0.00,,,0.00,0.000000,,2013-08-02 09:12:00,
2013-08-02 02:22:00,87.0,41.0,-100.00,SE,124,0.0,9.0,20,0.00,,,0.00,0.000000,,2013-08-02 09:22:00,
2013-08-02 02:53:00,86.0,39.0,-100.00,North,357,1.0,5.0,19,0.00,,,0.00,0.000000,,2013-08-02 09:53:00,
2013-08-02 03:02:00,86.0,39.0,-100.00,North,357,1.0,5.0,19,0.00,,,0.00,0.000000,,2013-08-02 10:02:00,
2013-08-02 03:12:00,86.0,39.0,-100.00,North,357,1.0,5.0,19,0.00,,,0.00,0.000000,,2013-08-02 10:12:00,
2013-08-02 03:23:00,86.0,39.0,-100.00,North,357,1.0,5.0,19,0.00,,,0.00,0.000000,,2013-08-02 10:23:00,
2013-08-02 03:52:00,84.0,46.0,-100.00,SSE,162,0.0,5.0,27,0.00,,,0.00,0.000000,,2013-08-02 10:52:00,
2013-08-02 04:02:00,84.0,46.0,-100.00,SSE,162,0.0,5.0,27,0.00,,,0.00,0.000000,,2013-08-02 11:02:00,
2013-08-02 04:12:00,84.0,46.0,-100.00,SSE,162,0.0,5.0,27,0.00,,,0.00,0.000000,,2013-08-02 11:12:00,
2013-08-02 04:22:00,84.0,46.0,-100.00,SSE,162,0.0,5.0,27,0.00,,,0.00,0.000000,,2013-08-02 11:22:00,
2013-08-02 04:52:00,81.0,47.0,-100.00,SE,143,1.0,6.0,31,0.00,,,0.00,0.000000,,2013-08-02 11:52:00,
2013-08-02 05:02:00,81.0,47.0,-100.00,SE,143,1.0,6.0,31,0.00,,,0.00,0.000000,,2013-08-02 12:02:00,
2013-08-02 05:12:00,81.0,47.0,-100.00,SE,143,1.0,6.0,31,0.00,,,0.00,0.000000,,2013-08-02 12:12:00,
2013-08-02 05:22:00,81.0,47.0,-100.00,SE,143,1.0,6.0,31,0.00,,,0.00,0.000000,,2013-08-02 12:22:00,
2013-08-02 05:52:00,81.0,46.0,-100.00,SE,128,4.0,5.0,29,0.00,,,0.00,0.000000,,2013-08-02 12:52:00,
2013-08-02 06:02:00,81.0,46.0,-100.00,SE,128,4.0,5.0,29,0.00,,,0.00,0.000000,,2013-08-02 13:02:00,
2013-08-02 06:12:00,81.0,46.0,-100.00,SE,128,4.0,5.0,29,0.00,,,0.00,0.000000,,2013-08-02 13:12:00,
2013-08-02 06:22:00,81.0,46.0,-100.00,SE,128,4.0,5.0,29,0.00,,,0.00,0.000000,,2013-08-02 13:22:00,
2013-08-02 06:52:00,84.0,57.0,-100.00,SSE,153,0.0,5.0,40,0.00,,,0.00,24.000000,,2013-08-02 13:52:00,
2013-08-02 07:02:00,84.0,57.0,-100.00,SSE,153,0.0,5.0,40,0.00,,,0.00,24.000000,,2013-08-02 14:02:00,
2013-08-02 07:12:00,84.0,57.0,-100.00,SSE,153,0.0,5.0,40,0.00,,,0.00,24.000000,,2013-08-02 14:12:00,
2013-08-02 07:22:00,84.0,57.0,-100.00,SSE,153,0.0,5.0,40,0.00,,,0.00,24.000000,,2013-08-02 14:22:00,
2013-08-02 07:53:00,82.0,59.0,-100.00,WNW,286,0.0,3.0,46,0.00,,,0.00,105.000000,,2013-08-02 14:53:00,
2013-08-02 08:03:00,82.0,59.0,-100.00,WNW,286,0.0,3.0,46,0.00,,,0.00,105.000000,,2013-08-02 15:03:00,
2013-08-02 08:12:00,82.0,59.0,-100.00,WNW,286,0.0,3.0,46,0.00,,,0.00,105.000000,,2013-08-02 15:12:00,
2013-08-02 08:22:00,82.0,59.0,-100.00,WNW,286,0.0,3.0,46,0.00,,,0.00,105.000000,,2013-08-02 15:22:00,
2013-08-02 08:52:00,91.0,59.0,-100.00,NNE,19,0.0,0.0,34,0.00,,,0.00,301.000000,,2013-08-02 15:52:00,
2013-08-02 09:02:00,91.0,59.0,-100.00,NNE,19,0.0,0.0,34,0.00,,,0.00,301.000000,,2013-08-02 16:02:00,
2013-08-02 09:12:00,91.0,59.0,-100.00,NNE,19,0.0,0.0,34,0.00,,,0.00,301.000000,,2013-08-02 16:12:00,
2013-08-02 09:22:00,91.0,59.0,-100.00,NNE,19,0.0,0.0,34,0.00,,,0.00,301.000000,,2013-08-02 16:22:00,
2013-08-02 09:53:00,93.0,54.0,-100.00,NW,305,0.0,4.0,27,0.00,,,0.00,499.000000,,2013-08-02 16:53:00,
2013-08-02 10:02:00,93.0,54.0,-100.00,NW,305,0.0,4.0,27,0.00,,,0.00,499.000000,,2013-08-02 17:02:00,
2013-08-02 10:12:00,93.0,54.0,-100.00,NW,305,0.0,4.0,27,0.00,,,0.00,499.000000,,2013-08-02 17:12:00,
2013-08-02 10:22:00,93.0,54.0,-100.00,NW,305,0.0,4.0,27,0.00,,,0.00,499.000000,,2013-08-02 17:22:00,
2013-08-02 11:02:00,100.0,49.0,-100.00,South,182,3.0,8.0,18,0.00,,,0.00,887.000000,,2013-08-02 18:02:00,
2013-08-02 11:12:00,100.0,49.0,-100.00,South,182,3.0,8.0,18,0.00,,,0.00,887.000000,,2013-08-02 18:12:00,
2013-08-02 11:22:00,100.0,49.0,-100.00,South,182,3.0,8.0,18,0.00,,,0.00,887.000000,,2013-08-02 18:22:00,
2013-08-02 11:52:00,100.0,50.0,-100.00,South,178,3.0,11.0,19,0.00,,,0.00,978.000000,,2013-08-02 18:52:00,
2013-08-02 12:02:00,100.0,50.0,-100.00,South,178,3.0,11.0,19,0.00,,,0.00,978.000000,,2013-08-02 19:02:00,
2013-08-02 12:12:00,100.0,50.0,-100.00,South,178,3.0,11.0,19,0.00,,,0.00,978.000000,,2013-08-02 19:12:00,
2013-08-02 12:22:00,100.0,50.0,-100.00,South,178,3.0,11.0,19,0.00,,,0.00,978.000000,,2013-08-02 19:22:00,
2013-08-02 12:52:00,101.0,46.0,-100.00,SSE,163,5.0,14.0,16,0.00,,,0.00,990.000000,,2013-08-02 19:52:00,
2013-08-02 13:02:00,101.0,46.0,-100.00,SSE,163,5.0,14.0,16,0.00,,,0.00,990.000000,,2013-08-02 20:02:00,
2013-08-02 13:12:00,101.0,46.0,-100.00,SSE,163,5.0,14.0,16,0.00,,,0.00,990.000000,,2013-08-02 20:12:00,
2013-08-02 13:22:00,101.0,46.0,-100.00,SSE,163,5.0,14.0,16,0.00,,,0.00,990.000000,,2013-08-02 20:22:00,
2013-08-02 13:52:00,104.0,43.0,-100.00,SSW,208,12.0,21.0,13,0.00,,,0.00,1200.000000,,2013-08-02 20:52:00,
2013-08-02 14:02:00,104.0,43.0,-100.00,SSW,208,12.0,21.0,13,0.00,,,0.00,1200.000000,,2013-08-02 21:02:00,
2013-08-02 14:12:00,104.0,43.0,-100.00,SSW,208,12.0,21.0,13,0.00,,,0.00,1200.000000,,2013-08-02 21:12:00,
2013-08-02 14:22:00,104.0,43.0,-100.00,SSW,208,12.0,21.0,13,0.00,,,0.00,1200.000000,,2013-08-02 21:22:00,
2013-08-02 14:53:00,105.0,40.0,-100.00,SSW,200,12.0,24.0,11,0.00,,,0.00,1149.000000,,2013-08-02 21:53:00,
2013-08-02 15:02:00,105.0,40.0,-100.00,SSW,200,12.0,24.0,11,0.00,,,0.00,1149.000000,,2013-08-02 22:02:00,
2013-08-02 15:22:00,105.0,40.0,-100.00,SSW,200,12.0,24.0,11,0.00,,,0.00,1149.000000,,2013-08-02 22:22:00,
2013-08-02 15:52:00,105.0,44.0,-100.00,SSW,212,11.0,23.0,13,0.00,,,0.00,1029.000000,,2013-08-02 22:52:00,
2013-08-02 16:02:00,105.0,44.0,-100.00,SSW,212,11.0,23.0,13,0.00,,,0.00,1029.000000,,2013-08-02 23:02:00,
2013-08-02 16:12:00,105.0,44.0,-100.00,SSW,212,11.0,23.0,13,0.00,,,0.00,1029.000000,,2013-08-02 23:12:00,
2013-08-02 16:22:00,105.0,44.0,-100.00,SSW,212,11.0,23.0,13,0.00,,,0.00,1029.000000,,2013-08-02 23:22:00,
2013-08-02 16:53:00,106.0,45.0,-100.00,SSW,212,10.0,21.0,13,0.00,,,0.00,835.000000,,2013-08-02 23:53:00,
2013-08-02 17:02:00,106.0,45.0,-100.00,SSW,212,10.0,21.0,13,0.00,,,0.00,835.000000,,2013-08-03 00:02:00,
2013-08-02 17:12:00,106.0,45.0,-100.00,SSW,212,10.0,21.0,13,0.00,,,0.00,835.000000,,2013-08-03 00:12:00,
2013-08-02 17:22:00,106.0,45.0,-100.00,SSW,212,10.0,21.0,13,0.00,,,0.00,835.000000,,2013-08-03 00:22:00,
2013-08-02 17:52:00,106.0,43.0,-100.00,SSW,207,12.0,19.0,12,0.00,,,0.00,452.000000,,2013-08-03 00:52:00,
2013-08-02 18:02:00,106.0,43.0,-100.00,SSW,207,12.0,19.0,12,0.00,,,0.00,452.000000,,2013-08-03 01:02:00,
2013-08-02 18:12:00,106.0,43.0,-100.00,SSW,207,12.0,19.0,12,0.00,,,0.00,452.000000,,2013-08-03 01:12:00,
2013-08-02 18:22:00,106.0,43.0,-100.00,SSW,207,12.0,19.0,12,0.00,,,0.00,452.000000,,2013-08-03 01:22:00,
2013-08-02 18:53:00,104.0,41.0,-100.00,SSW,205,9.0,20.0,12,0.00,,,0.00,56.000000,,2013-08-03 01:53:00,
2013-08-02 19:02:00,104.0,41.0,-100.00,SSW,205,9.0,20.0,12,0.00,,,0.00,56.000000,,2013-08-03 02:02:00,
2013-08-02 19:12:00,104.0,41.0,-100.00,SSW,205,9.0,20.0,12,0.00,,,0.00,56.000000,,2013-08-03 02:12:00,
2013-08-02 19:22:00,104.0,41.0,-100.00,SSW,205,9.0,20.0,12,0.00,,,0.00,56.000000,,2013-08-03 02:22:00,
2013-08-02 19:52:00,98.0,41.0,-100.00,SSW,206,6.0,16.0,14,0.00,,,0.00,60.000000,,2013-08-03 02:52:00,
2013-08-02 20:02:00,98.0,41.0,-100.00,SSW,206,6.0,16.0,14,0.00,,,0.00,60.000000,,2013-08-03 03:02:00,
2013-08-02 20:12:00,98.0,41.0,-100.00,SSW,206,6.0,16.0,14,0.00,,,0.00,60.000000,,2013-08-03 03:12:00,
2013-08-02 20:22:00,98.0,41.0,-100.00,SSW,206,6.0,16.0,14,0.00,,,0.00,60.000000,,2013-08-03 03:22:00,
2013-08-02 20:53:00,95.0,40.0,-100.00,SSW,207,7.0,13.0,15,0.00,,,0.00,1.000000,,2013-08-03 03:53:00,
2013-08-02 21:02:00,95.0,40.0,-100.00,SSW,207,7.0,13.0,15,0.00,,,0.00,1.000000,,2013-08-03 04:02:00,
2013-08-02 21:12:00,95.0,40.0,-100.00,SSW,207,7.0,13.0,15,0.00,,,0.00,1.000000,,2013-08-03 04:12:00,
2013-08-02 21:22:00,95.0,40.0,-100.00,SSW,207,7.0,13.0,15,0.00,,,0.00,1.000000,,2013-08-03 04:22:00,
2013-08-02 21:53:00,94.0,44.0,-100.00,SSW,200,7.0,13.0,18,0.00,,,0.00,0.000000,,2013-08-03 04:53:00,
2013-08-02 22:02:00,94.0,44.0,-100.00,SSW,200,7.0,13.0,18,0.00,,,0.00,0.000000,,2013-08-03 05:02:00,
2013-08-02 22:11:00,94.0,44.0,-100.00,SSW,200,7.0,13.0,18,0.00,,,0.00,0.000000,,2013-08-03 05:11:00,
2013-08-02 22:22:00,94.0,44.0,-100.00,SSW,200,7.0,13.0,18,0.00,,,0.00,0.000000,,2013-08-03 05:22:00,
2013-08-02 22:52:00,91.0,44.0,-100.00,SW,219,3.0,15.0,20,0.00,,,0.00,0.000000,,2013-08-03 05:52:00,
2013-08-02 23:02:00,91.0,44.0,-100.00,SW,219,3.0,15.0,20,0.00,,,0.00,0.000000,,2013-08-03 06:02:00,
2013-08-02 23:12:00,91.0,44.0,-100.00,SW,219,3.0,15.0,20,0.00,,,0.00,0.000000,,2013-08-03 06:12:00,
2013-08-02 23:22:00,91.0,44.0,-100.00,SW,219,3.0,15.0,20,0.00,,,0.00,0.000000,,2013-08-03 06:22:00,
2013-08-02 23:52:00,89.0,43.0,-100.00,SW,222,8.0,12.0,20,0.00,,,0.00,0.000000,,2013-08-03 06:52:00,